Time;durP1;ratioP1;P1;durP2;ratioP2;P2;SDS_P1;SDS_P2;PMS_P1;PMS_P2;Temp;Humidity;BMP_temperature;BMP_pressure;BME280_temperature;BME280_humidity;BME280_pressure;Samples;Min_cycle;Max_cycle;Signal;HPM_P1;HPM_P2
2022/11/05 00:10:35;;;;;;;32.72;18.83;;;;;;;10.58;75.29;93056.34;5069381;28;20066;-35
2022/11/05 00:18:30;;;;;;;27.17;17.73;;;;;;;10.46;76.22;93067.03;5079119;28;20169;-35
2022/11/05 00:20:56;;;;;;;34.80;19.63;;;;;;;10.53;75.84;93060.03;5077275;28;20106;-35
2022/11/05 00:26:07;;;;;;;29.27;18.75;;;;;;;10.71;74.89;93067.13;5077205;28;20714;-35
2022/11/05 00:28:34;;;;;;;33.80;17.88;;;;;;;10.70;74.79;93071.19;5078894;28;20119;-34
2022/11/05 00:31:04;;;;;;;31.05;18.60;;;;;;;10.65;75.17;93072.16;5078875;28;20024;-34
2022/11/05 00:33:30;;;;;;;34.55;19.25;;;;;;;10.66;74.91;93079.84;5077359;28;20033;-34
2022/11/05 00:35:56;;;;;;;31.85;20.35;;;;;;;10.57;75.19;93068.66;5080482;28;20419;-34
2022/11/05 00:38:21;;;;;;;39.15;20.55;;;;;;;10.44;74.91;93055.81;5081084;28;20503;-35
2022/11/05 00:40:47;;;;;;;37.20;21.73;;;;;;;10.57;74.53;93065.91;5089959;28;20055;-35
2022/11/05 00:45:58;;;;;;;33.10;19.83;;;;;;;10.79;73.98;93078.13;5025892;28;20519;-35
2022/11/05 00:51:07;;;;;;;33.47;19.30;;;;;;;10.80;73.96;93083.13;5083890;28;20089;-35
2022/11/05 00:53:33;;;;;;;31.65;19.95;;;;;;;10.86;73.90;93077.38;5082723;28;20033;-35
2022/11/05 00:55:59;;;;;;;31.75;19.90;;;;;;;10.76;73.98;93080.00;5085356;28;20066;-35
2022/11/05 00:58:26;;;;;;;39.22;18.88;;;;;;;10.76;73.71;93077.25;5088985;28;20466;-34
2022/11/05 01:00:53;;;;;;;27.38;18.83;;;;;;;10.85;73.68;93070.41;5089303;28;20044;-35
2022/11/05 01:03:21;;;;;;;33.38;17.70;;;;;;;10.81;72.97;93056.22;5085271;28;20039;-35
2022/11/05 01:05:48;;;;;;;26.75;15.82;;;;;;;10.74;73.57;93049.47;5081523;28;20035;-36
2022/11/05 01:08:16;;;;;;;28.90;17.33;;;;;;;10.65;73.64;93039.72;5085218;28;20036;-36
2022/11/05 01:10:43;;;;;;;30.95;17.88;;;;;;;10.57;74.86;93052.84;5087722;28;20106;-36
2022/11/05 01:13:09;;;;;;;30.67;18.95;;;;;;;10.53;75.52;93046.97;5087941;28;20470;-35
2022/11/05 01:15:37;;;;;;;31.63;18.65;;;;;;;10.50;75.61;93045.31;5085555;28;20027;-36
2022/11/05 01:18:03;;;;;;;33.33;18.92;;;;;;;10.39;74.94;93026.44;5081593;28;20040;-36
2022/11/05 01:20:29;;;;;;;32.67;19.90;;;;;;;10.50;75.77;93037.03;5080861;28;20512;-35
2022/11/05 01:22:54;;;;;;;29.05;18.45;;;;;;;10.52;75.74;93030.97;5082662;28;20021;-35
2022/11/05 01:25:20;;;;;;;30.25;17.50;;;;;;;10.46;75.54;93030.44;5085333;28;20489;-35
2022/11/05 01:27:45;;;;;;;37.72;18.88;;;;;;;10.48;75.30;93025.81;5088231;28;20077;-35
2022/11/05 01:30:11;;;;;;;30.92;18.30;;;;;;;10.43;75.04;93017.75;5078630;28;20020;-35
2022/11/05 01:32:37;;;;;;;32.78;20.35;;;;;;;10.47;75.36;93029.16;5083366;28;20412;-35
2022/11/05 01:35:05;;;;;;;32.67;19.58;;;;;;;10.45;75.28;93023.44;5079997;28;20043;-35
2022/11/05 01:37:30;;;;;;;30.60;18.80;;;;;;;10.49;75.21;93026.56;5082296;28;20077;-36
2022/11/05 01:39:56;;;;;;;35.30;19.27;;;;;;;10.39;75.55;93020.91;5079933;28;20446;-35
2022/11/05 01:42:23;;;;;;;29.67;19.35;;;;;;;10.14;74.72;93009.03;5084446;28;20028;-35
2022/11/05 01:44:51;;;;;;;34.90;18.90;;;;;;;9.96;74.85;93014.94;5089925;28;20035;-35
2022/11/05 01:47:37;;;;;;;30.73;17.48;;;;;;;9.91;74.69;93011.09;5076504;28;20031;-35
2022/11/05 01:50:29;;;;;;;29.30;19.15;;;;;;;9.79;75.40;93016.25;5082245;28;20168;-35
2022/11/05 01:53:02;;;;;;;33.05;17.13;;;;;;;9.58;75.62;93007.47;5083536;28;20680;-35
2022/11/05 01:55:31;;;;;;;29.10;16.73;;;;;;;9.67;75.18;93003.41;5084398;28;20032;-36
2022/11/05 01:57:58;;;;;;;26.95;16.00;;;;;;;9.52;75.46;93003.44;5059899;28;20043;-35
2022/11/05 02:00:23;;;;;;;30.88;16.25;;;;;;;9.30;74.99;92982.13;5079327;28;20080;-35
2022/11/05 02:02:49;;;;;;;21.38;14.85;;;;;;;9.26;75.00;92992.78;5085950;28;20060;-35
2022/11/05 02:05:14;;;;;;;27.15;15.43;;;;;;;9.24;75.27;92990.59;5079828;28;20024;-35
2022/11/05 02:07:42;;;;;;;25.00;15.95;;;;;;;9.20;75.15;92981.22;5079689;28;20423;-36
2022/11/05 02:10:10;;;;;;;32.50;17.20;;;;;;;9.31;75.98;92989.13;5087993;28;20107;-35
2022/11/05 02:12:37;;;;;;;30.75;15.55;;;;;;;9.36;75.70;92979.91;5083952;28;20482;-35
2022/11/05 02:15:03;;;;;;;30.55;15.73;;;;;;;9.27;75.82;92972.94;5067539;28;20029;-35
2022/11/05 02:17:47;;;;;;;23.48;16.05;;;;;;;8.94;76.17;92969.25;5084622;28;20522;-35
2022/11/05 02:20:24;;;;;;;30.02;16.17;;;;;;;8.87;75.40;92963.75;5066062;28;20051;-35
2022/11/05 02:22:50;;;;;;;25.95;14.93;;;;;;;8.67;76.27;92967.41;5081344;28;20028;-35
2022/11/05 02:25:51;;;;;;;29.25;14.35;;;;;;;8.54;76.56;92968.31;5084790;28;20116;-35
2022/11/05 02:28:29;;;;;;;27.42;15.13;;;;;;;8.56;76.08;92962.25;5059447;28;20118;-35
2022/11/05 02:30:54;;;;;;;27.55;16.15;;;;;;;8.52;77.48;92964.63;5080948;28;20033;-34
2022/11/05 02:33:47;;;;;;;32.00;17.02;;;;;;;8.71;76.75;92960.25;5084187;28;20503;-35
2022/11/05 02:36:24;;;;;;;27.80;17.13;;;;;;;8.77;76.50;92966.31;5065765;28;20044;-35
2022/11/05 02:39:14;;;;;;;29.70;16.60;;;;;;;8.84;77.92;92979.34;5086430;28;20058;-35
2022/11/05 02:41:51;;;;;;;29.42;17.38;;;;;;;9.03;77.90;92981.78;5091439;28;20084;-35
2022/11/05 02:45:08;;;;;;;31.85;18.25;;;;;;;9.12;78.35;92976.44;5067061;28;20028;-35
2022/11/05 02:47:54;;;;;;;32.28;17.33;;;;;;;9.21;79.07;92969.66;5048621;28;20036;-35
2022/11/05 02:50:33;;;;;;;33.45;17.27;;;;;;;9.04;78.11;92969.47;5090003;28;20114;-35
2022/11/05 02:53:03;;;;;;;35.35;17.60;;;;;;;8.88;77.11;92973.50;5061378;28;20013;-35
2022/11/05 02:55:32;;;;;;;28.73;18.85;;;;;;;8.92;77.59;92971.84;5062296;28;20085;-36
2022/11/05 02:58:00;;;;;;;37.25;20.30;;;;;;;9.02;78.50;92970.03;5079127;28;20043;-35
2022/11/05 03:00:44;;;;;;;31.80;18.90;;;;;;;9.09;79.52;92971.31;5083076;28;20050;-35
2022/11/05 03:03:36;;;;;;;33.88;18.65;;;;;;;9.24;79.65;92982.31;5061580;28;20034;-35
2022/11/05 03:06:50;;;;;;;30.58;18.77;;;;;;;9.26;79.26;92977.00;5082654;28;20049;-35
2022/11/05 03:09:39;;;;;;;32.50;18.85;;;;;;;9.14;78.79;92971.13;5073168;28;20525;-35
2022/11/05 03:12:23;;;;;;;29.55;18.13;;;;;;;9.18;78.79;92975.53;5081447;28;20020;-36
2022/11/05 03:14:54;;;;;;;35.38;18.02;;;;;;;9.15;78.18;92975.34;5081785;28;20051;-35
2022/11/05 03:17:45;;;;;;;31.15;18.58;;;;;;;9.03;77.32;92971.47;5082942;28;20031;-35
2022/11/05 03:20:17;;;;;;;31.85;18.08;;;;;;;9.07;77.12;92976.63;5086834;28;20034;-35
2022/11/05 03:23:00;;;;;;;32.70;18.10;;;;;;;8.94;77.50;92974.75;5073650;28;20074;-35
2022/11/05 03:25:28;;;;;;;33.13;17.95;;;;;;;8.93;76.64;92970.56;5082522;28;20115;-34
2022/11/05 03:27:57;;;;;;;32.55;18.30;;;;;;;8.95;75.80;92973.50;5063396;28;20032;-34
2022/11/05 03:30:24;;;;;;;32.50;18.38;;;;;;;8.79;76.21;92974.75;5069069;28;20034;-35
2022/11/05 03:33:12;;;;;;;24.95;16.35;;;;;;;8.87;75.46;92974.78;5081726;28;20039;-34
2022/11/05 03:35:41;;;;;;;33.75;17.33;;;;;;;8.84;75.89;92970.34;5070518;28;20063;-34
2022/11/05 03:38:12;;;;;;;29.90;18.60;;;;;;;8.74;76.84;92970.19;5067420;28;20032;-34
2022/11/05 03:40:40;;;;;;;31.27;18.02;;;;;;;8.68;77.36;92964.13;5072288;28;20518;-34
2022/11/05 03:43:06;;;;;;;31.05;20.17;;;;;;;8.70;79.02;92967.06;5065567;28;20105;-35
2022/11/05 03:45:39;;;;;;;30.55;18.15;;;;;;;8.58;78.45;92960.41;5084492;28;20077;-35
2022/11/05 03:48:06;;;;;;;29.98;18.30;;;;;;;8.38;78.05;92956.53;5080032;28;20031;-34
2022/11/05 03:50:48;;;;;;;35.85;17.88;;;;;;;8.40;77.92;92964.25;5070848;28;20516;-34
2022/11/05 03:53:17;;;;;;;33.75;19.25;;;;;;;8.26;78.86;92958.16;5059348;28;20038;-34
2022/11/05 03:55:53;;;;;;;31.80;18.33;;;;;;;8.37;78.21;92968.06;5059478;28;20134;-34
2022/11/05 03:58:20;;;;;;;29.80;16.80;;;;;;;8.38;77.65;92973.03;5060230;28;20063;-34
2022/11/05 04:00:46;;;;;;;28.42;18.23;;;;;;;8.33;77.32;92975.94;5059867;28;20032;-34
2022/11/05 04:03:12;;;;;;;31.83;20.23;;;;;;;8.28;79.73;92974.84;5062074;28;20411;-34
2022/11/05 04:05:37;;;;;;;30.65;17.60;;;;;;;8.24;79.04;92970.94;5080467;28;20081;-34
2022/11/05 04:13:32;;;;;;;29.95;17.42;;;;;;;8.08;79.54;92972.16;5080743;28;20570;-35
2022/11/05 04:18:42;;;;;;;31.35;17.23;;;;;;;8.19;78.73;92974.56;5085263;28;20117;-35
2022/11/05 04:24:08;;;;;;;35.55;18.23;;;;;;;7.84;79.42;92978.13;5091124;28;20427;-35
2022/11/05 04:26:42;;;;;;;28.08;16.98;;;;;;;7.86;78.74;92992.75;5088219;28;20051;-35
2022/11/05 04:31:52;;;;;;;29.98;17.38;;;;;;;7.78;79.34;92994.75;5070595;28;20531;-35
2022/11/05 04:34:20;;;;;;;31.25;18.67;;;;;;;7.76;79.60;92991.81;5067092;28;20024;-36
2022/11/05 04:36:49;;;;;;;29.40;16.33;;;;;;;7.65;79.39;93000.34;5081720;28;20043;-36
2022/11/05 04:39:18;;;;;;;30.50;16.60;;;;;;;7.51;79.47;93002.44;5091398;28;20082;-36
2022/11/05 04:41:46;;;;;;;32.50;18.08;;;;;;;7.30;79.48;92976.31;5093410;28;20032;-35
2022/11/05 04:44:12;;;;;;;32.30;19.95;;;;;;;7.43;80.56;93000.94;5087074;28;20033;-35
2022/11/05 04:46:38;;;;;;;28.45;18.60;;;;;;;7.49;80.88;93007.03;5077775;28;20020;-34
2022/11/05 04:49:03;;;;;;;32.50;18.58;;;;;;;7.53;83.24;93018.41;5085165;28;20047;-35
2022/11/05 04:51:29;;;;;;;40.20;19.70;;;;;;;7.61;82.96;93016.44;5088592;28;20020;-34
2022/11/05 04:53:54;;;;;;;36.00;18.23;;;;;;;7.85;84.38;93016.03;5084825;28;20568;-35
2022/11/05 04:56:22;;;;;;;29.52;17.90;;;;;;;7.92;83.45;93018.09;5086671;28;20032;-35
2022/11/05 04:58:47;;;;;;;27.33;16.45;;;;;;;7.67;80.51;93008.78;5083400;28;20040;-35
2022/11/05 05:01:15;;;;;;;31.70;16.85;;;;;;;7.61;79.87;93024.69;5078118;28;20052;-34
2022/11/05 05:03:40;;;;;;;32.53;18.65;;;;;;;7.68;81.77;93012.28;5079054;28;20036;-35
2022/11/05 05:06:06;;;;;;;35.97;19.45;;;;;;;7.94;84.26;93025.78;5088095;28;20032;-35
2022/11/05 05:08:32;;;;;;;37.45;18.75;;;;;;;7.99;84.24;93033.88;5080021;28;20123;-35
2022/11/05 05:11:07;;;;;;;36.08;19.08;;;;;;;8.03;82.92;93030.78;5064649;28;20081;-35
2022/11/05 05:13:33;;;;;;;37.28;20.50;;;;;;;8.18;83.50;93019.88;5086520;28;20043;-35
2022/11/05 05:15:58;;;;;;;39.80;19.60;;;;;;;8.09;82.90;93012.13;5084686;28;20086;-35
2022/11/05 05:18:25;;;;;;;30.67;18.05;;;;;;;8.26;81.45;93048.16;5080644;28;20471;-35
2022/11/05 05:23:39;;;;;;;35.80;19.40;;;;;;;7.88;76.37;93028.72;5079281;28;20043;-34
2022/11/05 05:26:04;;;;;;;77.95;37.80;;;;;;;7.76;78.77;93057.00;5064587;28;20031;-35
2022/11/05 05:28:30;;;;;;;66.85;32.40;;;;;;;7.67;79.68;93068.50;5085394;28;20035;-35
2022/11/05 05:30:58;;;;;;;63.88;26.33;;;;;;;7.82;79.51;93069.31;5086923;28;20508;-35
2022/11/05 05:33:24;;;;;;;31.23;19.45;;;;;;;7.62;79.11;93072.88;5083420;28;20024;-34
2022/11/05 05:35:49;;;;;;;40.30;18.30;;;;;;;7.55;80.46;93076.28;5085514;28;20028;-35
2022/11/05 05:38:14;;;;;;;28.50;17.80;;;;;;;7.58;81.40;93084.19;5081096;28;20031;-35
2022/11/05 05:40:40;;;;;;;36.65;18.35;;;;;;;7.56;82.49;93070.25;5080917;28;20416;-35
2022/11/05 05:43:05;;;;;;;34.78;18.02;;;;;;;7.70;81.63;93072.91;5087920;28;20024;-36
2022/11/05 05:45:31;;;;;;;34.58;18.55;;;;;;;7.76;82.15;93079.00;5080638;28;20020;-36
2022/11/05 05:47:56;;;;;;;36.25;18.40;;;;;;;7.86;83.36;93080.00;5086355;28;20089;-35
2022/11/05 05:50:22;;;;;;;55.13;18.48;;;;;;;8.00;82.29;93082.09;5082487;28;20032;-36
2022/11/05 05:52:47;;;;;;;45.67;18.42;;;;;;;8.18;80.68;93077.63;5085409;28;20496;-36
2022/11/05 05:55:13;;;;;;;29.65;15.98;;;;;;;8.30;79.39;93085.03;5084417;28;20039;-36
2022/11/05 05:57:38;;;;;;;40.17;18.90;;;;;;;8.38;79.30;93085.81;5085094;28;20063;-36
2022/11/05 06:00:05;;;;;;;37.00;18.02;;;;;;;8.52;78.87;93091.19;5088571;28;20124;-35
2022/11/05 06:02:30;;;;;;;31.95;16.70;;;;;;;8.73;78.36;93089.06;5088047;28;20404;-36
2022/11/05 06:04:56;;;;;;;31.52;16.48;;;;;;;9.01;77.14;93088.94;5085881;28;20031;-34
2022/11/05 06:07:21;;;;;;;24.85;15.00;;;;;;;9.18;77.15;93088.44;5084619;28;20037;-34
2022/11/05 06:09:47;;;;;;;46.70;19.50;;;;;;;9.36;76.97;93090.84;5081806;28;20024;-34
2022/11/05 06:12:12;;;;;;;36.50;22.08;;;;;;;9.50;75.64;93097.69;5086108;28;20027;-34
2022/11/05 06:14:38;;;;;;;36.58;23.00;;;;;;;9.69;74.67;93091.78;5075464;28;20121;-34
2022/11/05 06:17:05;;;;;;;47.97;25.02;;;;;;;9.90;74.40;93089.56;5083686;28;20509;-34
2022/11/05 06:19:31;;;;;;;46.55;28.75;;;;;;;10.06;73.96;93091.03;5085594;28;20085;-34
2022/11/05 06:21:56;;;;;;;100.18;40.67;;;;;;;10.23;73.28;93085.69;5080990;28;20465;-34
2022/11/05 06:24:22;;;;;;;83.35;49.13;;;;;;;10.36;72.00;93088.25;5068994;28;20024;-35
2022/11/05 06:26:47;;;;;;;99.75;51.03;;;;;;;10.54;71.29;93089.84;5083752;28;20138;-34
2022/11/05 06:29:12;;;;;;;67.22;41.08;;;;;;;10.74;70.69;93084.63;5078845;28;20036;-35
2022/11/05 06:31:38;;;;;;;70.15;43.40;;;;;;;10.76;70.36;93068.22;5080895;28;20412;-34
2022/11/05 06:34:03;;;;;;;68.90;41.92;;;;;;;10.93;70.34;93084.91;5084317;28;20081;-34
2022/11/05 06:36:29;;;;;;;66.47;40.63;;;;;;;11.21;69.75;93082.53;5080583;28;20055;-35
2022/11/05 06:38:54;;;;;;;51.35;32.63;;;;;;;11.48;69.54;93082.72;5086593;28;20105;-35
2022/11/05 06:41:20;;;;;;;78.68;28.65;;;;;;;11.77;69.21;93078.31;5084875;28;20055;-35
2022/11/05 06:43:45;;;;;;;45.63;26.38;;;;;;;12.14;68.73;93082.78;5079449;28;20032;-36
2022/11/05 06:46:11;;;;;;;40.97;22.38;;;;;;;12.76;67.55;93078.78;5078181;28;20563;-36
2022/11/05 06:48:37;;;;;;;35.03;19.77;;;;;;;13.43;65.52;93084.03;5078658;28;20489;-36
2022/11/05 06:51:03;;;;;;;37.95;18.90;;;;;;;14.14;63.37;93076.28;5081995;28;20036;-36
2022/11/05 06:53:29;;;;;;;31.35;18.25;;;;;;;14.89;60.35;93079.75;5076388;28;20615;-37
2022/11/05 06:55:54;;;;;;;41.83;20.20;;;;;;;15.36;58.00;93034.44;5076394;28;20036;-36
2022/11/05 06:58:20;;;;;;;35.85;19.98;;;;;;;16.09;55.92;93056.88;5085916;28;20073;-36
2022/11/05 07:00:46;;;;;;;53.25;29.83;;;;;;;16.70;54.13;93052.56;5084574;28;20047;-36
2022/11/05 07:03:12;;;;;;;51.97;32.40;;;;;;;17.19;52.99;93057.13;5086047;28;20024;-36
2022/11/05 07:05:42;;;;;;;51.60;32.08;;;;;;;17.81;52.46;93054.72;5076391;28;20053;-37
2022/11/05 07:08:08;;;;;;;47.88;30.00;;;;;;;18.40;50.95;93062.50;5065059;28;20032;-36
2022/11/05 07:10:34;;;;;;;55.30;28.70;;;;;;;18.97;48.95;93051.81;5087885;28;20476;-36
2022/11/05 07:12:59;;;;;;;37.53;24.92;;;;;;;19.53;47.52;93055.00;5081625;28;20046;-36
2022/11/05 07:15:25;;;;;;;61.05;24.00;;;;;;;19.82;46.77;93041.16;5077893;28;20036;-36
2022/11/05 07:17:56;;;;;;;29.98;18.42;;;;;;;20.06;45.15;93039.63;5059772;28;20035;-36
2022/11/05 07:20:21;;;;;;;27.58;18.88;;;;;;;20.72;44.36;93033.22;5075637;28;20056;-36
2022/11/05 07:22:46;;;;;;;23.60;15.55;;;;;;;21.14;43.33;93022.00;5080198;28;20472;-36
2022/11/05 07:25:12;;;;;;;21.67;15.48;;;;;;;21.23;43.08;93019.59;5082453;28;20060;-35
2022/11/05 07:27:38;;;;;;;24.77;14.68;;;;;;;21.72;42.40;93026.84;5079206;28;20503;-36
2022/11/05 07:30:09;;;;;;;25.98;18.30;;;;;;;22.40;40.59;93022.88;5079102;28;20106;-35
2022/11/05 07:32:39;;;;;;;27.95;20.63;;;;;;;22.89;39.79;93020.78;5079166;28;20147;-35
2022/11/05 07:35:05;;;;;;;26.90;19.88;;;;;;;23.10;38.80;93017.47;5084133;28;20861;-35
2022/11/05 07:37:31;;;;;;;21.73;16.98;;;;;;;23.79;37.98;93017.38;5085097;28;20101;-36
2022/11/05 07:39:56;;;;;;;24.95;16.45;;;;;;;24.14;36.81;93013.78;5085065;28;20653;-36
2022/11/05 07:42:22;;;;;;;24.05;14.90;;;;;;;24.46;36.72;93021.34;5087831;28;20035;-36
2022/11/05 07:44:48;;;;;;;22.95;12.27;;;;;;;24.49;35.45;93020.03;5079926;28;20056;-36
2022/11/05 07:47:14;;;;;;;19.33;13.30;;;;;;;24.64;35.21;93021.25;5086785;28;20491;-36
2022/11/05 07:49:39;;;;;;;17.02;12.20;;;;;;;25.09;34.14;93024.25;5086715;28;20081;-36
2022/11/05 07:52:05;;;;;;;18.00;11.57;;;;;;;24.86;34.21;93016.41;5081674;28;20118;-37
2022/11/05 07:54:31;;;;;;;16.20;10.50;;;;;;;25.07;34.11;93018.53;5083203;28;20419;-36
2022/11/05 07:56:57;;;;;;;16.00;12.25;;;;;;;25.03;34.23;93014.84;5082895;28;20039;-37
2022/11/05 07:59:23;;;;;;;45.10;12.85;;;;;;;25.71;33.40;93014.25;5083981;28;20567;-37
2022/11/05 08:01:49;;;;;;;15.13;10.77;;;;;;;25.67;32.54;93019.06;5082673;28;20034;-37
2022/11/05 08:04:14;;;;;;;20.40;10.65;;;;;;;25.56;32.67;93018.03;5083881;28;20411;-36
2022/11/05 08:06:40;;;;;;;46.60;12.77;;;;;;;25.67;32.47;93016.97;5082448;28;20521;-37
2022/11/05 08:09:06;;;;;;;39.85;10.93;;;;;;;25.88;31.42;93016.19;5083199;28;20131;-37
2022/11/05 08:11:33;;;;;;;31.98;12.93;;;;;;;26.07;30.20;93009.72;5083836;28;20099;-37
2022/11/05 08:13:59;;;;;;;11.93;8.25;;;;;;;24.33;31.73;93019.44;5077519;28;20028;-36
2022/11/05 08:16:25;;;;;;;16.52;10.10;;;;;;;24.25;32.16;93010.69;5083958;28;20027;-36
2022/11/05 08:18:51;;;;;;;18.50;8.68;;;;;;;23.75;32.55;93008.78;5084255;28;20043;-36
2022/11/05 08:21:16;;;;;;;15.63;8.30;;;;;;;23.05;33.52;93001.75;5084232;28;20073;-35
2022/11/05 08:23:42;;;;;;;12.80;9.02;;;;;;;22.81;34.08;93012.03;5081704;28;20063;-36
2022/11/05 08:26:09;;;;;;;14.10;9.70;;;;;;;22.46;34.49;93004.19;5081478;28;20064;-36
2022/11/05 08:28:34;;;;;;;14.77;9.00;;;;;;;22.38;35.35;93012.28;5079952;28;20103;-36
2022/11/05 08:31:00;;;;;;;14.32;8.88;;;;;;;22.81;35.21;93003.56;5084494;28;20174;-37
2022/11/05 08:33:28;;;;;;;10.73;8.23;;;;;;;23.22;34.72;93000.31;5080472;28;20020;-36
2022/11/05 08:35:53;;;;;;;17.58;11.27;;;;;;;24.06;33.98;93003.66;5080898;28;20685;-36
2022/11/05 08:38:19;;;;;;;17.92;9.82;;;;;;;24.57;31.67;93000.56;5084705;28;20028;-36
2022/11/05 08:40:53;;;;;;;13.43;9.43;;;;;;;24.06;33.15;93000.13;5080347;28;20046;-36
2022/11/05 08:43:19;;;;;;;15.20;8.93;;;;;;;24.69;32.03;92994.59;5075933;28;20131;-36
2022/11/05 08:45:44;;;;;;;16.48;10.15;;;;;;;25.37;31.94;92984.91;5076819;28;20107;-37
2022/11/05 08:48:13;;;;;;;11.57;9.80;;;;;;;25.94;30.90;92993.06;5079520;28;20032;-36
2022/11/05 08:50:39;;;;;;;;;;;;;;;26.77;30.00;92985.56;5077707;28;20031;-37
2022/11/05 08:53:05;;;;;;;15.70;9.57;;;;;;;27.20;29.71;92989.50;5083033;28;19984;-37
2022/11/05 08:55:31;;;;;;;28.35;10.35;;;;;;;27.87;27.99;92978.38;5082617;28;20020;-37
2022/11/05 08:58:02;;;;;;;9.95;7.75;;;;;;;27.44;27.25;92979.47;5082502;28;20031;-36
2022/11/05 09:00:30;;;;;;;14.68;7.65;;;;;;;27.53;26.52;92969.06;5080706;28;20033;-36
2022/11/05 09:03:00;;;;;;;14.23;8.13;;;;;;;27.05;27.79;92986.28;5076997;28;20050;-36
2022/11/05 09:05:27;;;;;;;12.80;8.85;;;;;;;26.37;28.61;92981.59;5076125;28;20028;-36
2022/11/05 09:07:53;;;;;;;16.27;9.93;;;;;;;24.93;30.73;92991.94;5088888;28;20546;-36
2022/11/05 09:10:18;;;;;;;13.77;10.18;;;;;;;24.22;31.63;92980.22;5084373;28;20017;-36
2022/11/05 09:12:44;;;;;;;13.18;9.63;;;;;;;23.86;32.04;92977.50;5083237;28;20020;-36
2022/11/05 09:15:10;;;;;;;23.98;9.38;;;;;;;22.78;33.20;92981.63;5090274;28;20029;-36
2022/11/05 09:17:35;;;;;;;17.77;9.20;;;;;;;22.41;34.31;92988.50;5084702;28;20032;-36
2022/11/05 09:20:02;;;;;;;12.40;8.68;;;;;;;22.01;34.39;92988.81;5082164;28;20032;-36
2022/11/05 09:22:27;;;;;;;76.97;15.02;;;;;;;21.77;35.89;92985.63;5061093;28;20107;-36
2022/11/05 09:24:53;;;;;;;17.88;12.60;;;;;;;21.68;35.79;92983.78;5084450;28;20019;-36
2022/11/05 09:27:18;;;;;;;30.35;10.27;;;;;;;21.90;35.22;92976.41;5081755;28;20032;-36
2022/11/05 09:29:44;;;;;;;18.33;8.38;;;;;;;22.74;34.75;92979.34;5086727;28;20032;-36
2022/11/05 09:32:10;;;;;;;14.80;9.88;;;;;;;23.67;32.73;92975.34;5080271;28;20023;-36
2022/11/05 09:34:36;;;;;;;12.20;6.88;;;;;;;24.39;29.84;92962.50;5085706;28;20020;-36
2022/11/05 09:37:02;;;;;;;15.95;7.30;;;;;;;24.38;29.13;92969.53;5078570;28;20085;-36
2022/11/05 09:39:28;;;;;;;16.63;6.47;;;;;;;23.61;30.94;92969.50;5075386;28;20450;-36
2022/11/05 09:41:59;;;;;;;8.73;6.32;;;;;;;23.47;30.00;92966.13;5082493;28;20102;-36
2022/11/05 09:44:46;;;;;;;11.65;6.60;;;;;;;23.27;31.37;92965.31;5057510;28;20036;-35
2022/11/05 09:47:23;;;;;;;10.52;6.63;;;;;;;24.40;29.36;92961.84;5083216;28;20036;-36
2022/11/05 09:49:51;;;;;;;13.20;6.18;;;;;;;25.68;26.54;92958.31;5084374;28;20039;-36
2022/11/05 09:52:22;;;;;;;8.93;6.13;;;;;;;26.29;25.81;92958.75;5059904;28;20039;-36
2022/11/05 09:54:49;;;;;;;8.27;5.72;;;;;;;26.75;24.48;92943.00;5059831;28;20036;-36
2022/11/05 09:57:27;;;;;;;9.18;5.40;;;;;;;26.81;23.65;92942.47;5079789;28;20035;-36
2022/11/05 10:00:00;;;;;;;12.93;4.90;;;;;;;26.03;23.58;92940.97;5087111;28;20067;-35
2022/11/05 10:02:32;;;;;;;8.43;5.18;;;;;;;26.09;23.01;92944.00;5060331;28;20036;-36
2022/11/05 10:05:07;;;;;;;6.95;5.43;;;;;;;25.42;24.98;92950.50;5081783;28;20027;-36
2022/11/05 10:07:42;;;;;;;7.35;5.80;;;;;;;25.43;25.33;92946.25;5078603;28;20807;-36
2022/11/05 10:10:26;;;;;;;11.40;5.82;;;;;;;25.71;25.16;92937.22;5060271;28;20037;-36
2022/11/05 10:13:13;;;;;;;10.18;6.15;;;;;;;24.85;26.79;92950.00;5065556;28;20467;-36
2022/11/05 10:15:45;;;;;;;7.28;5.88;;;;;;;24.80;27.31;92948.41;5079900;28;20588;-36
2022/11/05 10:18:22;;;;;;;9.40;6.10;;;;;;;24.79;27.64;92944.16;5060048;28;20039;-36
2022/11/05 10:20:47;;;;;;;9.35;6.82;;;;;;;25.44;27.02;92939.25;5066327;28;20024;-36
2022/11/05 10:23:18;;;;;;;12.45;6.32;;;;;;;25.22;26.61;92944.16;5084758;28;20036;-36
2022/11/05 10:25:46;;;;;;;9.38;6.25;;;;;;;24.66;27.49;92940.19;5081722;28;20028;-35
2022/11/05 10:28:16;;;;;;;12.52;6.55;;;;;;;24.48;27.63;92939.56;5082084;28;20035;-35
2022/11/05 10:30:43;;;;;;;10.40;6.53;;;;;;;23.79;28.16;92935.63;5087328;28;20024;-35
2022/11/05 10:33:10;;;;;;;8.13;6.13;;;;;;;24.07;27.63;92956.44;5063409;28;20028;-35
2022/11/05 10:35:51;;;;;;;9.55;4.90;;;;;;;23.54;27.17;92947.38;5066439;28;20028;-35
2022/11/05 10:38:16;;;;;;;7.25;5.88;;;;;;;23.23;27.66;92940.53;5069741;28;20035;-35
2022/11/05 10:41:06;;;;;;;14.25;5.72;;;;;;;23.00;28.18;92941.00;5078468;28;20037;-35
2022/11/05 10:43:49;;;;;;;7.50;5.97;;;;;;;23.14;27.69;92938.03;5079458;28;20032;-36
2022/11/05 10:46:38;;;;;;;7.47;5.18;;;;;;;23.94;25.98;92934.78;5061535;28;20038;-36
2022/11/05 10:49:45;;;;;;;10.48;5.18;;;;;;;24.13;25.18;92936.19;5059328;28;20039;-35
2022/11/05 10:52:38;;;;;;;8.18;5.70;;;;;;;23.18;27.34;92929.75;5081894;28;20035;-36
2022/11/05 10:55:16;;;;;;;7.70;5.25;;;;;;;23.34;27.44;92930.41;5058657;28;20104;-36
2022/11/05 10:57:42;;;;;;;9.98;5.10;;;;;;;23.24;27.08;92936.34;5062265;28;20573;-35
2022/11/05 11:00:22;;;;;;;9.60;6.50;;;;;;;23.47;28.01;92923.88;5075721;28;20131;-35
2022/11/05 11:02:52;;;;;;;6.72;5.85;;;;;;;23.45;27.26;92923.06;5083921;28;20069;-35
2022/11/05 11:05:21;;;;;;;7.57;5.32;;;;;;;23.71;26.21;92918.41;5079916;28;20037;-35
2022/11/05 11:07:56;;;;;;;8.02;4.82;;;;;;;24.05;25.67;92916.88;5070930;28;20460;-35
2022/11/05 11:10:23;;;;;;;8.02;4.20;;;;;;;23.49;24.50;92914.78;5062743;28;20785;-35
2022/11/05 11:12:50;;;;;;;7.28;5.40;;;;;;;23.71;25.39;92912.78;5070044;28;20027;-35
2022/11/05 11:15:22;;;;;;;6.75;5.20;;;;;;;23.85;25.33;92913.28;5086990;28;20027;-35
2022/11/05 11:17:47;;;;;;;7.90;5.38;;;;;;;23.98;26.41;92907.44;5077066;28;20141;-35
2022/11/05 11:20:19;;;;;;;7.63;5.70;;;;;;;24.37;25.79;92911.63;5084463;28;20501;-36
2022/11/05 11:23:00;;;;;;;8.63;5.22;;;;;;;24.54;24.89;92917.19;5083156;28;20067;-36
2022/11/05 11:25:31;;;;;;;8.30;5.55;;;;;;;24.36;24.59;92910.19;5080339;28;20032;-36
2022/11/05 11:28:01;;;;;;;10.93;6.22;;;;;;;24.45;26.28;92909.09;5060725;28;20039;-36
2022/11/05 11:30:26;;;;;;;11.10;5.95;;;;;;;24.13;26.59;92905.16;5062081;28;20413;-35
2022/11/05 11:32:58;;;;;;;14.15;5.78;;;;;;;23.54;27.29;92908.63;5079942;28;20261;-35
2022/11/05 11:35:24;;;;;;;9.43;5.95;;;;;;;23.06;28.81;92887.03;5062971;28;20709;-35
2022/11/05 11:37:54;;;;;;;8.88;5.80;;;;;;;23.11;28.56;92905.53;5079091;28;20770;-36
2022/11/05 11:40:23;;;;;;;13.93;6.18;;;;;;;22.59;29.11;92893.63;5078349;28;20063;-36
2022/11/05 11:42:54;;;;;;;10.98;6.57;;;;;;;22.12;30.26;92909.16;5063750;28;20032;-35
2022/11/05 11:45:42;;;;;;;7.68;5.88;;;;;;;21.73;31.10;92915.91;5076552;28;20028;-35
2022/11/05 11:48:17;;;;;;;10.57;5.47;;;;;;;21.51;31.38;92912.09;5078257;28;20456;-35
2022/11/05 11:50:45;;;;;;;8.57;6.13;;;;;;;21.21;32.22;92915.59;5057695;28;20064;-35
2022/11/05 11:53:19;;;;;;;11.45;7.70;;;;;;;21.12;32.64;92912.44;5064525;28;20028;-35
2022/11/05 11:55:54;;;;;;;12.55;7.30;;;;;;;20.91;32.90;92906.47;5080679;28;20034;-35
2022/11/05 11:58:20;;;;;;;9.95;5.80;;;;;;;21.27;32.37;92908.19;5082304;28;20517;-36
2022/11/05 12:00:49;;;;;;;11.15;6.10;;;;;;;21.48;31.72;92912.66;5064033;28;20048;-35
2022/11/05 12:03:18;;;;;;;;;;;;;;;21.32;31.80;92912.66;5064129;28;20047;-35
2022/11/05 12:05:43;;;;;;;8.07;5.28;;;;;;;21.19;30.90;92912.72;5080395;28;19922;-35
2022/11/05 12:08:23;;;;;;;9.30;5.22;;;;;;;20.96;31.63;92914.44;5084724;28;20032;-35
2022/11/05 12:11:07;;;;;;;11.80;6.15;;;;;;;20.82;32.21;92899.75;5087911;28;20043;-35
2022/11/05 12:13:36;;;;;;;7.15;5.40;;;;;;;20.62;32.09;92909.31;5082546;28;20031;-35
2022/11/05 12:16:26;;;;;;;9.45;5.60;;;;;;;20.69;32.10;92917.38;5079300;28;20500;-35